Time;durP1;ratioP1;P1;durP2;ratioP2;P2;SDS_P1;SDS_P2;PMS_P1;PMS_P2;Temp;Humidity;BMP_temperature;BMP_pressure;BME280_temperature;BME280_humidity;BME280_pressure;Samples;Min_cycle;Max_cycle;Signal;HPM_P1;HPM_P2
2023/03/15 00:00:09;;;;;;;8.20;2.63;;;4.10;99.90;;;;;;5014626;28;20051;-77
2023/03/15 00:02:35;;;;;;;8.50;1.50;;;4.10;99.90;;;;;;5032716;28;20536;-78
2023/03/15 00:05:01;;;;;;;5.82;1.20;;;4.10;99.90;;;;;;5019922;28;20124;-78
2023/03/15 00:07:27;;;;;;;9.93;1.55;;;4.10;99.90;;;;;;5029055;28;20037;-79
2023/03/15 00:09:53;;;;;;;13.48;2.00;;;4.10;99.90;;;;;;5028462;28;20060;-78
2023/03/15 00:12:21;;;;;;;11.18;1.60;;;4.00;99.90;;;;;;5016689;28;20041;-79
2023/03/15 00:14:48;;;;;;;7.03;1.60;;;4.00;99.90;;;;;;5019198;28;20040;-79
2023/03/15 00:17:14;;;;;;;8.07;1.70;;;4.20;99.90;;;;;;5031807;28;20061;-79
2023/03/15 00:19:40;;;;;;;9.57;1.88;;;3.90;99.90;;;;;;5030651;28;20034;-78
2023/03/15 00:22:06;;;;;;;6.65;1.30;;;3.90;99.90;;;;;;5035217;28;20049;-79
2023/03/15 00:24:31;;;;;;;9.77;1.27;;;3.90;99.90;;;;;;5020736;28;20037;-79
2023/03/15 00:29:25;;;;;;;8.73;1.40;;;3.80;99.90;;;;;;5046872;28;20538;-55
2023/03/15 00:31:51;;;;;;;8.10;1.63;;;3.70;99.90;;;;;;5028527;28;20038;-57
2023/03/15 00:34:22;;;;;;;8.95;1.50;;;3.70;99.90;;;;;;5001679;28;20042;-58
2023/03/15 00:36:48;;;;;;;6.43;1.67;;;3.70;99.90;;;;;;4997037;28;20034;-58
2023/03/15 00:39:14;;;;;;;7.90;1.58;;;3.70;99.90;;;;;;5006909;28;20072;-58
2023/03/15 00:41:40;;;;;;;8.38;1.35;;;3.70;99.90;;;;;;5007060;28;20195;-58
2023/03/15 00:44:06;;;;;;;5.45;1.27;;;3.60;99.90;;;;;;5005047;28;20500;-58
2023/03/15 00:46:32;;;;;;;6.18;1.30;;;3.60;99.90;;;;;;4997501;28;20041;-52
2023/03/15 00:48:57;;;;;;;3.85;1.15;;;3.60;99.90;;;;;;4973413;28;20753;-58
2023/03/15 00:51:23;;;;;;;7.20;1.10;;;3.60;99.90;;;;;;4987648;28;20094;-56
2023/03/15 00:53:51;;;;;;;5.57;1.10;;;3.60;99.90;;;;;;5006073;28;20052;-54
2023/03/15 00:56:26;;;;;;;8.68;1.58;;;3.60;99.90;;;;;;4999092;28;20034;-58
2023/03/15 00:58:52;;;;;;;5.80;0.93;;;3.60;99.90;;;;;;4987482;28;20053;-58
2023/03/15 01:01:29;;;;;;;13.93;1.80;;;3.50;99.90;;;;;;5004654;28;20060;-56
2023/03/15 01:03:55;;;;;;;6.93;1.27;;;3.60;99.90;;;;;;4990430;28;20049;-56
2023/03/15 01:06:26;;;;;;;9.52;1.42;;;3.50;99.90;;;;;;4984591;28;20557;-56
2023/03/15 01:08:54;;;;;;;7.85;1.30;;;3.60;99.90;;;;;;5007845;28;20180;-58
2023/03/15 01:11:23;;;;;;;5.57;1.10;;;3.50;99.90;;;;;;4998438;28;20057;-58
2023/03/15 01:13:55;;;;;;;10.48;1.60;;;3.60;99.90;;;;;;5003656;28;20056;-56
2023/03/15 01:16:21;;;;;;;6.72;1.70;;;3.50;99.90;;;;;;4999543;28;20033;-55
2023/03/15 01:18:47;;;;;;;6.40;1.83;;;3.60;99.90;;;;;;4998620;28;20041;-58
2023/03/15 01:21:14;;;;;;;9.98;2.45;;;3.50;99.90;;;;;;4988070;28;20045;-59
2023/03/15 01:23:40;;;;;;;12.43;1.95;;;3.40;99.90;;;;;;5008115;28;20045;-57
2023/03/15 01:26:09;;;;;;;8.50;1.48;;;3.30;99.90;;;;;;5009014;28;20311;-58
2023/03/15 01:28:35;;;;;;;12.73;2.05;;;3.20;99.90;;;;;;5000413;28;20125;-58
2023/03/15 01:31:01;;;;;;;13.48;2.55;;;3.20;99.90;;;;;;4984316;28;20046;-59
2023/03/15 01:33:27;;;;;;;18.83;2.03;;;3.20;99.90;;;;;;5000645;28;20039;-58
2023/03/15 01:36:01;;;;;;;8.90;1.50;;;3.10;99.90;;;;;;5005003;28;20099;-57
2023/03/15 01:38:27;;;;;;;10.20;1.50;;;3.10;99.90;;;;;;5002675;28;20121;-55
2023/03/15 01:40:53;;;;;;;18.13;1.92;;;3.10;99.90;;;;;;4996881;28;20400;-59
2023/03/15 01:43:21;;;;;;;8.43;1.70;;;3.10;99.90;;;;;;4989628;28;20045;-58
2023/03/15 01:45:50;;;;;;;5.05;1.15;;;3.10;99.90;;;;;;5006737;28;20041;-57
2023/03/15 01:48:17;;;;;;;6.38;1.60;;;3.00;99.90;;;;;;5000702;28;20037;-57
2023/03/15 01:50:43;;;;;;;8.95;1.33;;;3.00;99.90;;;;;;5004805;28;20045;-58
2023/03/15 01:53:09;;;;;;;10.52;1.73;;;2.90;99.90;;;;;;4983729;28;20045;-56
2023/03/15 01:55:35;;;;;;;7.15;1.25;;;2.90;99.90;;;;;;5006593;28;20045;-57
2023/03/15 01:58:05;;;;;;;6.82;1.20;;;2.90;99.90;;;;;;5004919;28;20048;-56
2023/03/15 02:00:31;;;;;;;9.52;2.28;;;2.90;99.90;;;;;;5003921;28;20034;-58
2023/03/15 02:02:59;;;;;;;7.63;1.27;;;2.90;99.90;;;;;;4986221;28;20047;-58
2023/03/15 02:05:31;;;;;;;4.00;0.90;;;2.90;99.90;;;;;;4982425;28;20120;-58
2023/03/15 02:07:57;;;;;;;8.25;1.65;;;2.90;99.90;;;;;;5001544;28;20059;-57
2023/03/15 02:10:30;;;;;;;5.00;1.20;;;2.90;99.90;;;;;;5005954;28;20048;-58
2023/03/15 02:12:58;;;;;;;5.50;1.45;;;2.90;99.90;;;;;;5000879;28;20057;-57
2023/03/15 02:15:24;;;;;;;7.10;1.35;;;3.00;99.90;;;;;;4997769;28;20037;-56
2023/03/15 02:17:50;;;;;;;8.77;1.10;;;3.00;99.90;;;;;;4982833;28;20045;-58
2023/03/15 02:20:26;;;;;;;6.60;1.15;;;3.00;99.90;;;;;;4991891;28;20107;-55
2023/03/15 02:22:51;;;;;;;5.40;1.23;;;3.00;99.90;;;;;;4993291;28;20041;-56
2023/03/15 02:25:44;;;;;;;10.25;1.15;;;3.00;99.90;;;;;;5004477;28;20168;-57
2023/03/15 02:28:13;;;;;;;6.85;1.80;;;3.00;99.90;;;;;;5016995;28;20042;-57
2023/03/15 02:30:39;;;;;;;7.13;1.27;;;3.10;99.90;;;;;;5006285;28;20060;-57
2023/03/15 02:33:28;;;;;;;6.53;1.70;;;3.20;99.90;;;;;;5001817;28;20728;-54
2023/03/15 02:35:55;;;;;;;10.07;1.20;;;3.10;99.90;;;;;;5007298;28;20049;-56
2023/03/15 02:38:24;;;;;;;8.45;1.60;;;3.20;99.90;;;;;;5001219;28;20060;-58
2023/03/15 02:40:52;;;;;;;7.38;1.42;;;3.20;99.90;;;;;;4998755;28;20045;-53
2023/03/15 02:43:23;;;;;;;10.38;3.28;;;3.30;99.90;;;;;;5003609;28;20061;-58
2023/03/15 02:45:49;;;;;;;8.40;1.30;;;3.20;99.90;;;;;;5004951;28;20045;-57
2023/03/15 02:48:16;;;;;;;9.13;1.35;;;3.20;99.90;;;;;;4997282;28;20037;-57
2023/03/15 02:50:42;;;;;;;6.55;1.17;;;3.20;99.90;;;;;;5004378;28;20049;-58
2023/03/15 02:53:08;;;;;;;10.93;2.08;;;3.20;99.90;;;;;;5000702;28;20041;-57
2023/03/15 02:55:34;;;;;;;7.10;1.42;;;3.20;99.90;;;;;;4999450;28;20087;-57
2023/03/15 02:58:01;;;;;;;4.65;1.15;;;3.20;99.90;;;;;;4978715;28;20191;-59
2023/03/15 03:00:27;;;;;;;4.55;1.05;;;3.10;99.90;;;;;;4979705;28;20069;-58
2023/03/15 03:02:54;;;;;;;10.82;1.38;;;3.10;99.90;;;;;;5010992;28;20500;-58
2023/03/15 03:05:20;;;;;;;9.75;1.38;;;3.10;99.90;;;;;;4997521;28;20163;-58
2023/03/15 03:07:46;;;;;;;4.55;1.08;;;3.00;99.90;;;;;;4997701;28;20044;-58
2023/03/15 03:10:14;;;;;;;8.13;1.33;;;3.00;99.90;;;;;;5003272;28;20034;-57
2023/03/15 03:12:40;;;;;;;6.07;1.25;;;3.00;99.90;;;;;;4996056;28;20054;-58
2023/03/15 03:15:07;;;;;;;4.60;1.15;;;3.00;99.90;;;;;;4995447;28;20068;-57
2023/03/15 03:17:36;;;;;;;5.88;1.08;;;3.00;99.90;;;;;;5004815;28;20034;-55
2023/03/15 03:20:10;;;;;;;3.10;0.63;;;3.10;99.90;;;;;;5006135;28;20046;-58
2023/03/15 03:22:37;;;;;;;4.75;0.93;;;3.10;99.90;;;;;;4989040;28;20484;-58
2023/03/15 03:25:05;;;;;;;2.95;0.75;;;3.20;99.90;;;;;;5009603;28;20049;-57
2023/03/15 03:27:30;;;;;;;3.92;1.05;;;3.20;99.90;;;;;;5008852;28;20052;-57
2023/03/15 03:29:57;;;;;;;3.92;1.00;;;3.10;99.90;;;;;;4994660;28;20504;-56
2023/03/15 03:32:23;;;;;;;5.72;1.20;;;3.10;99.90;;;;;;4989037;28;20033;-59
2023/03/15 03:34:49;;;;;;;8.77;0.98;;;3.00;99.90;;;;;;5003511;28;20064;-57
2023/03/15 03:37:19;;;;;;;8.02;1.30;;;3.10;99.90;;;;;;4983511;28;20391;-57
2023/03/15 03:39:44;;;;;;;8.93;1.33;;;3.00;99.90;;;;;;4988462;28;20045;-58
2023/03/15 03:42:10;;;;;;;9.93;1.33;;;3.00;99.90;;;;;;5000145;28;20543;-58
2023/03/15 03:44:36;;;;;;;8.63;1.15;;;3.10;99.90;;;;;;5022336;28;20346;-58
2023/03/15 03:47:02;;;;;;;5.13;1.05;;;3.00;99.90;;;;;;4978935;28;20048;-58
2023/03/15 03:49:28;;;;;;;7.47;1.05;;;3.00;99.90;;;;;;5022771;28;20428;-58
2023/03/15 03:51:54;;;;;;;5.07;0.85;;;3.00;99.90;;;;;;5003706;28;20041;-58
2023/03/15 03:54:23;;;;;;;5.60;0.80;;;2.90;99.90;;;;;;4997813;28;20060;-58
2023/03/15 03:56:49;;;;;;;4.32;0.98;;;2.80;99.90;;;;;;4993735;28;20471;-55
2023/03/15 03:59:15;;;;;;;5.57;0.95;;;2.80;99.90;;;;;;5000968;28;20120;-58
2023/03/15 04:01:41;;;;;;;3.75;0.93;;;2.80;99.90;;;;;;4983614;28;20046;-58
2023/03/15 04:04:07;;;;;;;7.45;2.15;;;2.70;99.90;;;;;;5003957;28;20037;-57
2023/03/15 04:06:33;;;;;;;6.60;1.35;;;2.70;99.90;;;;;;4996259;28;20180;-57
2023/03/15 04:09:01;;;;;;;6.25;1.60;;;2.60;99.90;;;;;;5008694;28;20091;-58
2023/03/15 04:11:27;;;;;;;6.30;1.60;;;2.60;99.90;;;;;;5005394;28;20042;-58
2023/03/15 04:13:53;;;;;;;7.05;1.27;;;2.60;99.90;;;;;;5009505;28;20049;-57
2023/03/15 04:16:19;;;;;;;5.57;1.40;;;2.50;99.90;;;;;;4974545;28;20037;-58
2023/03/15 04:18:44;;;;;;;8.00;1.50;;;2.50;99.90;;;;;;5003355;28;20077;-58
2023/03/15 04:21:10;;;;;;;8.10;2.10;;;2.50;99.90;;;;;;5006313;28;20033;-58
2023/03/15 04:23:37;;;;;;;9.98;2.70;;;2.40;99.90;;;;;;5023852;28;20515;-56
2023/03/15 04:26:04;;;;;;;6.38;1.90;;;2.40;99.90;;;;;;4983522;28;20041;-58
2023/03/15 04:28:30;;;;;;;11.30;2.10;;;2.50;99.90;;;;;;5018231;28;20514;-52
2023/03/15 04:30:57;;;;;;;12.00;1.55;;;2.40;99.90;;;;;;4985501;28;20469;-52
2023/03/15 04:33:24;;;;;;;9.05;1.35;;;2.40;99.90;;;;;;4992531;28;20246;-52
2023/03/15 04:35:51;;;;;;;12.68;3.90;;;2.40;99.90;;;;;;4985720;28;20438;-58
2023/03/15 04:38:18;;;;;;;8.88;1.50;;;2.40;99.90;;;;;;4991265;28;20037;-51
2023/03/15 04:40:43;;;;;;;8.18;1.38;;;2.40;99.90;;;;;;5006430;28;20041;-57
2023/03/15 04:43:09;;;;;;;6.88;1.50;;;2.40;99.90;;;;;;4984793;28;20037;-56
2023/03/15 04:45:35;;;;;;;7.65;1.70;;;2.40;99.90;;;;;;4990921;28;20033;-54
2023/03/15 04:48:02;;;;;;;13.05;1.58;;;2.40;99.90;;;;;;4996992;28;20523;-51
2023/03/15 04:50:29;;;;;;;5.28;1.85;;;2.40;99.90;;;;;;5011139;28;20091;-54
2023/03/15 04:52:56;;;;;;;9.30;1.88;;;2.30;99.90;;;;;;4989634;28;20041;-56
2023/03/15 04:55:22;;;;;;;10.63;1.60;;;2.30;99.90;;;;;;5004574;28;20467;-54
2023/03/15 04:57:47;;;;;;;5.90;1.33;;;2.20;99.90;;;;;;4991155;28;20042;-57
2023/03/15 05:00:13;;;;;;;4.85;1.88;;;2.20;99.90;;;;;;5002255;28;20523;-56
2023/03/15 05:02:40;;;;;;;8.70;1.58;;;2.20;99.90;;;;;;5004155;28;20041;-57
2023/03/15 05:05:11;;;;;;;10.32;1.55;;;2.20;99.90;;;;;;5001551;28;20102;-57
2023/03/15 05:07:37;;;;;;;8.85;1.45;;;2.20;99.90;;;;;;4984647;28;20044;-57
2023/03/15 05:10:04;;;;;;;5.10;1.25;;;2.20;99.90;;;;;;5022085;28;20075;-56
2023/03/15 05:12:31;;;;;;;6.32;1.02;;;2.20;99.90;;;;;;5004513;28;20056;-53
2023/03/15 05:14:56;;;;;;;4.22;1.10;;;2.10;99.90;;;;;;4996831;28;20069;-57
2023/03/15 05:17:22;;;;;;;5.30;1.20;;;2.10;99.90;;;;;;5005627;28;20396;-58
2023/03/15 05:19:49;;;;;;;5.35;1.10;;;2.10;99.90;;;;;;5004627;28;20037;-56
2023/03/15 05:22:14;;;;;;;2.85;1.08;;;2.10;99.90;;;;;;4989504;28;20053;-57
2023/03/15 05:24:40;;;;;;;6.78;1.15;;;2.10;99.90;;;;;;5004339;28;20049;-57
2023/03/15 05:27:06;;;;;;;4.72;1.10;;;2.10;99.90;;;;;;4979088;28;20132;-52
2023/03/15 05:29:32;;;;;;;5.80;1.20;;;2.10;99.90;;;;;;5007459;28;20069;-57
2023/03/15 05:31:57;;;;;;;5.03;0.73;;;2.10;99.90;;;;;;4981721;28;20049;-57
2023/03/15 05:34:23;;;;;;;4.07;1.02;;;2.10;99.90;;;;;;5002969;28;20045;-58
2023/03/15 05:36:52;;;;;;;5.10;1.20;;;2.10;99.90;;;;;;4988483;28;20697;-57
2023/03/15 05:39:18;;;;;;;9.32;1.50;;;2.10;99.90;;;;;;4998250;28;20069;-56
2023/03/15 05:41:44;;;;;;;6.43;1.30;;;2.10;99.90;;;;;;4989390;28;20045;-52
2023/03/15 05:44:09;;;;;;;7.15;1.17;;;2.10;99.90;;;;;;4988531;28;20050;-56
2023/03/15 05:46:35;;;;;;;4.85;1.20;;;2.10;99.90;;;;;;5001748;28;20381;-57
2023/03/15 05:49:01;;;;;;;9.05;1.52;;;2.10;99.90;;;;;;5003542;28;20488;-57
2023/03/15 05:51:27;;;;;;;5.03;1.20;;;2.10;99.90;;;;;;4999012;28;20625;-55
2023/03/15 05:53:53;;;;;;;5.97;1.40;;;2.10;99.90;;;;;;4994813;28;20765;-55
2023/03/15 05:56:18;;;;;;;3.88;0.93;;;2.10;99.90;;;;;;4992300;28;20544;-57
2023/03/15 05:58:44;;;;;;;10.43;1.20;;;2.10;99.90;;;;;;4983779;28;20037;-56
2023/03/15 06:01:10;;;;;;;13.38;1.92;;;2.10;99.90;;;;;;5005090;28;20049;-55
2023/03/15 06:03:35;;;;;;;9.02;1.73;;;2.20;99.90;;;;;;5000600;28;20515;-57
2023/03/15 06:06:02;;;;;;;8.88;1.85;;;2.00;99.90;;;;;;4975918;28;20100;-55
2023/03/15 06:08:28;;;;;;;6.35;1.30;;;2.00;99.90;;;;;;5022070;28;20096;-55
2023/03/15 06:10:53;;;;;;;9.40;1.35;;;1.90;99.90;;;;;;5005213;28;20431;-57
2023/03/15 06:13:19;;;;;;;6.93;1.63;;;2.00;99.90;;;;;;5006751;28;20492;-56
2023/03/15 06:15:48;;;;;;;7.90;1.50;;;2.00;99.90;;;;;;5000672;28;20045;-55
2023/03/15 06:18:16;;;;;;;6.07;1.77;;;2.00;99.90;;;;;;5003535;28;20065;-55
2023/03/15 06:20:42;;;;;;;9.00;1.40;;;1.90;99.90;;;;;;4995263;28;20045;-54
2023/03/15 06:23:08;;;;;;;10.43;1.75;;;1.90;99.90;;;;;;4983515;28;20038;-52
2023/03/15 06:25:35;;;;;;;7.55;1.75;;;2.00;99.90;;;;;;4991397;28;20041;-56
2023/03/15 06:28:00;;;;;;;6.43;1.40;;;2.00;99.90;;;;;;5016389;22;20042;-58
2023/03/15 06:30:27;;;;;;;8.45;1.88;;;2.00;99.90;;;;;;4976016;28;20408;-59
2023/03/15 06:32:53;;;;;;;11.57;1.63;;;2.00;99.90;;;;;;4985578;28;20049;-59
2023/03/15 06:35:19;;;;;;;12.07;2.72;;;2.00;99.90;;;;;;4978368;28;20045;-57
2023/03/15 06:37:46;;;;;;;10.13;1.30;;;2.10;99.90;;;;;;4972802;28;20409;-59
2023/03/15 06:40:11;;;;;;;8.93;1.52;;;2.10;99.90;;;;;;4977651;28;20082;-59
2023/03/15 06:42:38;;;;;;;9.45;1.85;;;2.10;99.90;;;;;;4955527;28;20531;-59
2023/03/15 06:45:05;;;;;;;9.90;2.83;;;2.20;99.90;;;;;;4974020;28;20073;-59
2023/03/15 06:47:31;;;;;;;10.35;2.13;;;2.20;99.90;;;;;;4972414;28;20408;-57
2023/03/15 06:49:56;;;;;;;9.15;1.52;;;2.30;99.90;;;;;;4948055;28;20039;-58
2023/03/15 06:52:22;;;;;;;6.00;1.45;;;2.30;99.90;;;;;;4975140;28;20050;-59
2023/03/15 06:54:48;;;;;;;11.40;1.85;;;2.40;99.90;;;;;;4973067;28;20359;-58
2023/03/15 06:57:14;;;;;;;10.88;1.70;;;2.80;99.90;;;;;;4959665;28;20038;-59
2023/03/15 06:59:39;;;;;;;10.68;2.17;;;3.20;99.90;;;;;;4984262;28;20508;-59
2023/03/15 07:02:08;;;;;;;10.30;2.13;;;3.40;99.90;;;;;;4957612;28;20042;-59
2023/03/15 07:04:34;;;;;;;7.45;2.20;;;3.50;99.90;;;;;;4974125;28;20965;-59
2023/03/15 07:07:00;;;;;;;8.27;2.20;;;3.50;99.90;;;;;;4980396;28;20034;-59
2023/03/15 07:09:25;;;;;;;11.02;2.40;;;3.50;99.90;;;;;;4975647;28;20089;-59
2023/03/15 07:11:51;;;;;;;9.13;2.80;;;3.40;99.90;;;;;;4958668;28;20042;-58
2023/03/15 07:14:17;;;;;;;11.73;3.42;;;3.40;99.90;;;;;;4965715;28;20081;-55
2023/03/15 07:16:43;;;;;;;8.95;2.00;;;3.50;99.90;;;;;;4942563;28;20034;-57
2023/03/15 07:19:08;;;;;;;15.63;2.08;;;3.50;99.90;;;;;;4947896;28;20126;-59
2023/03/15 07:21:34;;;;;;;7.45;1.88;;;3.60;99.90;;;;;;4997430;28;20099;-59
2023/03/15 07:24:00;;;;;;;8.25;1.88;;;3.50;99.90;;;;;;4988248;28;20046;-59
2023/03/15 07:26:25;;;;;;;11.07;2.00;;;3.50;99.90;;;;;;4988229;28;20464;-60
2023/03/15 07:28:51;;;;;;;12.18;2.25;;;3.40;99.90;;;;;;4983628;28;20057;-59
2023/03/15 07:31:17;;;;;;;13.15;2.33;;;3.50;99.90;;;;;;4958455;28;20659;-60
2023/03/15 07:33:42;;;;;;;4.55;1.45;;;3.60;99.90;;;;;;4977798;28;20046;-59
2023/03/15 07:36:08;;;;;;;6.43;1.83;;;3.70;99.90;;;;;;4982587;28;20034;-59
2023/03/15 07:38:35;;;;;;;9.52;1.83;;;3.80;99.90;;;;;;4975157;28;20051;-60
2023/03/15 07:41:02;;;;;;;7.40;1.58;;;3.90;99.90;;;;;;4981645;28;20062;-56
2023/03/15 07:43:28;;;;;;;7.82;1.60;;;3.90;99.90;;;;;;4965838;28;20041;-59
2023/03/15 07:45:54;;;;;;;19.63;2.45;;;4.00;99.90;;;;;;4990106;28;20129;-60
2023/03/15 07:48:19;;;;;;;8.77;1.48;;;4.10;99.90;;;;;;4989564;28;20239;-58
2023/03/15 07:50:45;;;;;;;5.22;1.20;;;4.20;99.90;;;;;;4950549;28;20038;-58
2023/03/15 07:53:11;;;;;;;5.00;1.10;;;4.30;99.90;;;;;;4972026;28;20047;-60
2023/03/15 07:55:37;;;;;;;6.30;1.23;;;4.30;99.90;;;;;;4977803;28;20804;-60
2023/03/15 07:58:03;;;;;;;7.25;1.02;;;4.40;99.90;;;;;;4976909;28;20038;-60
2023/03/15 08:00:29;;;;;;;6.22;1.10;;;4.40;99.90;;;;;;4970042;28;20105;-57
2023/03/15 08:02:54;;;;;;;6.47;1.30;;;4.50;99.90;;;;;;4974163;28;20046;-60
2023/03/15 08:05:20;;;;;;;5.85;1.20;;;4.60;99.90;;;;;;4952307;28;20038;-60
2023/03/15 08:07:47;;;;;;;6.80;1.00;;;4.70;99.90;;;;;;4968797;28;20121;-60
2023/03/15 08:10:15;;;;;;;3.67;0.75;;;4.70;99.90;;;;;;4964273;28;20142;-60
2023/03/15 08:12:41;;;;;;;5.32;0.90;;;4.70;99.90;;;;;;4998879;28;20042;-60
2023/03/15 08:15:17;;;;;;;5.25;1.20;;;4.80;99.90;;;;;;4967370;28;20394;-60
2023/03/15 08:17:43;;;;;;;4.10;1.10;;;4.90;99.90;;;;;;4968753;28;20038;-58
2023/03/15 08:20:10;;;;;;;10.02;1.00;;;5.00;99.90;;;;;;4981699;28;20786;-59
2023/03/15 08:22:43;;;;;;;5.07;0.93;;;5.10;99.90;;;;;;4984020;28;20049;-59
2023/03/15 08:25:10;;;;;;;5.45;1.75;;;5.30;99.90;;;;;;4986285;28;20386;-57
2023/03/15 08:27:36;;;;;;;7.20;1.80;;;5.50;99.90;;;;;;4962066;28;20054;-60
2023/03/15 08:30:04;;;;;;;4.10;1.10;;;5.60;99.90;;;;;;4982456;28;20125;-60
2023/03/15 08:32:31;;;;;;;9.05;1.27;;;5.50;99.90;;;;;;4977569;28;20489;-59
2023/03/15 08:34:57;;;;;;;7.95;1.25;;;5.60;99.90;;;;;;4978818;28;20043;-60
2023/03/15 08:37:23;;;;;;;3.53;0.90;;;5.80;99.90;;;;;;4964951;28;20055;-58
2023/03/15 08:39:56;;;;;;;5.47;0.95;;;5.80;99.90;;;;;;4986160;28;20320;-60
2023/03/15 08:42:22;;;;;;;7.55;1.38;;;5.80;99.90;;;;;;4978716;28;20217;-60
2023/03/15 08:44:48;;;;;;;4.80;1.50;;;5.90;99.90;;;;;;4984963;28;20061;-60
2023/03/15 08:47:14;;;;;;;5.68;1.20;;;6.10;99.90;;;;;;4970942;28;20469;-58
2023/03/15 08:49:39;;;;;;;5.75;1.48;;;6.20;99.90;;;;;;4982683;28;20047;-57
2023/03/15 08:52:06;;;;;;;10.18;1.75;;;6.20;99.90;;;;;;4978819;28;20042;-59
2023/03/15 08:54:31;;;;;;;11.65;1.70;;;6.30;99.90;;;;;;4984646;28;20101;-60
2023/03/15 08:56:57;;;;;;;12.85;1.65;;;6.40;99.90;;;;;;4970722;28;20555;-57
2023/03/15 08:59:23;;;;;;;8.90;2.03;;;6.40;99.90;;;;;;4951184;28;20093;-56
2023/03/15 09:01:48;;;;;;;7.50;1.17;;;6.50;99.90;;;;;;4974520;28;20047;-58
2023/03/15 09:04:14;;;;;;;4.22;1.25;;;6.60;99.90;;;;;;4985713;28;20035;-60
2023/03/15 09:06:41;;;;;;;8.63;1.63;;;6.70;99.90;;;;;;4982777;28;20039;-58
2023/03/15 09:09:07;;;;;;;8.85;1.60;;;6.80;99.90;;;;;;4982886;28;20070;-60
2023/03/15 09:11:32;;;;;;;6.22;1.30;;;6.70;99.90;;;;;;4974531;28;20144;-60
2023/03/15 09:13:58;;;;;;;8.77;1.70;;;6.80;99.90;;;;;;4983098;28;20174;-57
2023/03/15 09:16:24;;;;;;;5.75;1.05;;;6.90;99.90;;;;;;4972568;28;20398;-58
2023/03/15 09:18:49;;;;;;;11.20;2.88;;;6.90;99.90;;;;;;4969744;28;20055;-58
2023/03/15 09:21:15;;;;;;;4.03;0.80;;;6.90;99.90;;;;;;4995559;28;20040;-59
2023/03/15 09:23:41;;;;;;;10.38;2.08;;;7.00;99.90;;;;;;4955130;28;20045;-59
2023/03/15 09:26:07;;;;;;;10.38;2.10;;;7.10;99.90;;;;;;4965152;28;20331;-58
2023/03/15 09:28:33;;;;;;;5.10;1.42;;;7.10;99.90;;;;;;4981440;28;20054;-58
2023/03/15 09:30:58;;;;;;;5.30;1.40;;;7.20;99.90;;;;;;4984580;28;20034;-60
2023/03/15 09:33:24;;;;;;;7.50;1.27;;;7.40;99.90;;;;;;4991843;28;20496;-60
2023/03/15 09:35:51;;;;;;;8.20;1.70;;;7.40;99.90;;;;;;4975660;28;20038;-58
2023/03/15 09:38:18;;;;;;;12.23;1.60;;;7.40;99.90;;;;;;4972759;28;20050;-59
2023/03/15 09:40:45;;;;;;;7.65;1.50;;;7.30;99.90;;;;;;4941592;28;20450;-59
2023/03/15 09:43:20;;;;;;;6.20;1.20;;;7.40;99.90;;;;;;4984852;28;20042;-60
2023/03/15 09:45:51;;;;;;;10.32;1.75;;;7.60;99.90;;;;;;4981382;28;20042;-58
2023/03/15 09:48:26;;;;;;;8.02;1.40;;;7.60;99.90;;;;;;4982413;28;20176;-58
2023/03/15 09:51:18;;;;;;;9.57;1.42;;;7.70;99.90;;;;;;4973712;28;20053;-58
2023/03/15 09:53:49;;;;;;;8.13;1.33;;;7.90;99.90;;;;;;4980779;28;20405;-58
2023/03/15 09:56:44;;;;;;;6.10;1.48;;;8.00;99.90;;;;;;4979018;28;20043;-60
2023/03/15 09:59:10;;;;;;;;;;;8.10;99.90;;;;;;4977945;28;20489;-59
2023/03/15 10:01:41;;;;;;;6.57;1.38;;;8.00;99.90;;;;;;4981714;28;19921;-57
2023/03/15 10:04:42;;;;;;;6.72;1.55;;;7.90;99.90;;;;;;4980825;28;20045;-58
2023/03/15 10:07:14;;;;;;;4.93;1.08;;;7.90;99.90;;;;;;4921636;28;20134;-59
2023/03/15 10:09:39;;;;;;;8.40;1.55;;;8.00;99.90;;;;;;4977485;28;20497;-57
2023/03/15 10:12:09;;;;;;;9.70;1.63;;;7.80;99.90;;;;;;4982692;28;20035;-60
2023/03/15 10:14:53;;;;;;;6.55;1.38;;;7.70;99.90;;;;;;4978790;28;20042;-59
2023/03/15 10:17:34;;;;;;;;;;;7.50;99.90;;;;;;4982565;28;20228;-60
2023/03/15 10:20:17;;;;;;;6.93;1.30;;;7.80;99.90;;;;;;4979203;28;19917;-58
2023/03/15 10:23:02;;;;;;;7.18;1.77;;;8.00;99.90;;;;;;4987309;28;20634;-59
2023/03/15 10:25:32;;;;;;;8.05;1.48;;;8.20;99.90;;;;;;4993714;28;20375;-59
2023/03/15 10:28:06;;;;;;;8.05;1.45;;;8.30;99.90;;;;;;4979261;28;20419;-60
2023/03/15 10:30:36;;;;;;;7.15;1.83;;;8.60;99.90;;;;;;4983821;28;20452;-59
2023/03/15 10:33:12;;;;;;;8.88;1.40;;;8.70;99.10;;;;;;4975111;28;20478;-60
2023/03/15 10:35:38;;;;;;;10.23;1.88;;;8.60;98.40;;;;;;4971749;28;20446;-58
2023/03/15 10:38:19;;;;;;;6.55;1.50;;;8.70;99.10;;;;;;4975094;28;20271;-60
2023/03/15 10:40:47;;;;;;;9.82;1.88;;;9.00;97.50;;;;;;4989317;28;20154;-59
2023/03/15 10:43:22;;;;;;;7.82;1.48;;;8.80;96.80;;;;;;4980131;28;20051;-59
2023/03/15 10:45:58;;;;;;;11.23;2.00;;;8.70;95.90;;;;;;4972864;28;20109;-59
2023/03/15 10:48:25;;;;;;;8.02;1.67;;;8.70;97.30;;;;;;4963558;28;20038;-60
2023/03/15 10:50:51;;;;;;;8.25;1.63;;;8.80;96.10;;;;;;4974166;28;20446;-59
2023/03/15 10:53:24;;;;;;;7.25;1.63;;;8.70;95.90;;;;;;4981240;28;20034;-59
2023/03/15 10:56:06;;;;;;;8.15;1.73;;;8.80;95.80;;;;;;4977762;28;20113;-59
2023/03/15 10:58:46;;;;;;;6.22;1.40;;;8.80;95.40;;;;;;4975947;28;20076;-60
2023/03/15 11:01:27;;;;;;;7.95;1.20;;;8.60;93.10;;;;;;4977299;28;20457;-59
2023/03/15 11:04:15;;;;;;;6.10;1.38;;;8.60;95.20;;;;;;4961715;28;20050;-60
2023/03/15 11:06:45;;;;;;;9.90;1.45;;;8.80;95.30;;;;;;4974891;28;20122;-61
2023/03/15 11:09:15;;;;;;;7.22;1.50;;;8.90;95.50;;;;;;4973106;28;20069;-61
2023/03/15 11:11:55;;;;;;;5.65;1.45;;;8.90;93.90;;;;;;4973198;28;20101;-61
2023/03/15 11:14:21;;;;;;;9.90;1.60;;;8.90;94.40;;;;;;4981131;28;20035;-61
2023/03/15 11:16:53;;;;;;;11.60;1.83;;;9.00;94.40;;;;;;4979947;28;20054;-61
2023/03/15 11:19:24;;;;;;;7.13;1.45;;;9.20;95.10;;;;;;4983346;28;20061;-61
2023/03/15 11:21:50;;;;;;;7.43;1.60;;;9.30;93.90;;;;;;4979700;28;20058;-61
2023/03/15 11:24:30;;;;;;;5.50;1.48;;;9.30;94.00;;;;;;4978052;28;20109;-61
2023/03/15 11:27:02;;;;;;;6.88;0.93;;;9.20;91.40;;;;;;4983268;28;20605;-61
2023/03/15 11:29:34;;;;;;;8.65;1.40;;;9.40;93.30;;;;;;4975804;28;20039;-61
2023/03/15 11:32:21;;;;;;;5.40;1.45;;;9.40;93.00;;;;;;4975818;28;20393;-62
2023/03/15 11:35:05;;;;;;;6.28;1.50;;;9.60;93.40;;;;;;4979770;28;20336;-62
2023/03/15 11:37:53;;;;;;;6.18;1.73;;;9.50;91.80;;;;;;4965688;28;20486;-61
2023/03/15 11:40:41;;;;;;;8.95;1.48;;;9.20;91.90;;;;;;4979586;28;20060;-61
2023/03/15 11:43:19;;;;;;;7.35;1.30;;;9.30;92.90;;;;;;4982486;28;20050;-61
2023/03/15 11:46:12;;;;;;;10.18;1.63;;;9.40;93.80;;;;;;5000922;28;21932;-61
2023/03/15 11:48:52;;;;;;;6.68;1.40;;;9.50;92.00;;;;;;4970704;28;20108;-61
2023/03/15 11:51:17;;;;;;;7.57;1.50;;;9.70;92.80;;;;;;4974860;28;20061;-61
2023/03/15 11:54:09;;;;;;;8.80;1.67;;;9.90;93.30;;;;;;4969828;28;20642;-61
2023/03/15 11:56:56;;;;;;;4.38;1.00;;;9.60;92.30;;;;;;4970853;28;20038;-61
2023/03/15 11:59:32;;;;;;;5.68;1.40;;;9.50;92.20;;;;;;4982321;28;20497;-61
2023/03/15 12:02:08;;;;;;;6.18;1.40;;;9.60;92.60;;;;;;4983594;28;20146;-62
2023/03/15 12:04:34;;;;;;;6.75;1.52;;;9.70;93.50;;;;;;4965742;28;20574;-61
2023/03/15 12:07:11;;;;;;;6.43;1.65;;;9.40;91.30;;;;;;4983807;28;20039;-61
2023/03/15 12:09:39;;;;;;;5.85;1.58;;;9.60;92.70;;;;;;4981481;28;20168;-61
2023/03/15 12:12:23;;;;;;;6.50;1.70;;;9.70;92.50;;;;;;4983883;28;20117;-61
2023/03/15 12:15:05;;;;;;;5.70;1.45;;;10.10;92.80;;;;;;4983626;28;20041;-62
2023/03/15 12:17:33;;;;;;;5.38;1.50;;;9.70;90.80;;;;;;4997068;28;20058;-61
2023/03/15 12:20:10;;;;;;;3.63;1.25;;;9.90;92.60;;;;;;4982141;28;20044;-62
2023/03/15 12:22:43;;;;;;;8.73;2.03;;;9.90;90.80;;;;;;4987655;28;20082;-62
2023/03/15 12:25:15;;;;;;;6.65;1.17;;;9.80;91.00;;;;;;4967088;28;20058;-61
2023/03/15 12:27:54;;;;;;;6.65;1.33;;;9.60;90.90;;;;;;4981593;22;20090;-56
2023/03/15 12:30:39;;;;;;;8.32;1.67;;;9.70;91.30;;;;;;5008726;28;20511;-54
2023/03/15 12:33:16;;;;;;;6.10;1.33;;;9.40;91.00;;;;;;5017283;28;20622;-56
2023/03/15 12:35:43;;;;;;;7.78;1.45;;;9.80;92.60;;;;;;5006768;28;20045;-54
2023/03/15 12:38:17;;;;;;;8.75;1.30;;;10.10;92.00;;;;;;5003332;28;20404;-56
2023/03/15 12:41:07;;;;;;;12.88;3.10;;;10.00;91.30;;;;;;5003831;28;20228;-56
2023/03/15 12:43:44;;;;;;;4.07;1.38;;;9.80;91.60;;;;;;5004618;28;20049;-55
2023/03/15 12:46:38;;;;;;;3.53;0.95;;;10.10;92.40;;;;;;4996584;28;20045;-53
2023/03/15 12:49:25;;;;;;;4.30;1.13;;;10.20;90.60;;;;;;4994433;28;20143;-55
2023/03/15 12:51:57;;;;;;;6.53;1.75;;;10.40;91.00;;;;;;5007966;28;20061;-56
2023/03/15 12:54:29;;;;;;;8.27;1.40;;;10.50;90.70;;;;;;5002004;28;20037;-52
2023/03/15 12:57:03;;;;;;;5.15;1.20;;;10.80;91.30;;;;;;5003687;28;20060;-55
2023/03/15 12:59:35;;;;;;;7.60;1.52;;;10.50;86.70;;;;;;5000774;28;20051;-55
2023/03/15 13:02:02;;;;;;;4.90;1.48;;;10.10;89.90;;;;;;5015185;28;21240;-53
2023/03/15 13:04:30;;;;;;;9.93;2.08;;;10.30;90.90;;;;;;5039181;28;20155;-54
2023/03/15 13:07:31;;;;;;;5.93;1.50;;;10.30;89.60;;;;;;5003597;28;20041;-57